Time;durP1;ratioP1;P1;durP2;ratioP2;P2;SDS_P1;SDS_P2;PMS_P1;PMS_P2;Temp;Humidity;BMP_temperature;BMP_pressure;BME280_temperature;BME280_humidity;BME280_pressure;Samples;Min_cycle;Max_cycle;Signal;HPM_P1;HPM_P2
2023/07/09 00:02:11;;;;;;;10.45;5.60;;;21.30;99.90;;;-144.05;51.66;56829.72;5055296;28;20047;-81
2023/07/09 00:04:37;;;;;;;9.07;5.25;;;21.40;99.90;;;-144.05;52.03;56791.50;5053737;28;20033;-81
2023/07/09 00:07:04;;;;;;;8.68;4.80;;;21.30;99.90;;;-144.05;52.41;56827.59;5035911;28;20032;-81
2023/07/09 00:09:31;;;;;;;7.55;4.70;;;21.30;99.90;;;-144.05;52.89;56827.59;5036231;28;20082;-79
2023/07/09 00:11:58;;;;;;;6.40;4.22;;;21.20;99.90;;;-144.05;53.67;56842.47;5052352;28;20025;-80
2023/07/09 00:14:24;;;;;;;8.85;5.75;;;21.10;99.90;;;-144.05;54.08;56825.47;5052376;28;20496;-81
2023/07/09 00:16:50;;;;;;;9.10;5.63;;;21.00;99.90;;;-144.05;54.53;56823.34;5052338;28;20037;-81
2023/07/09 00:19:23;;;;;;;7.65;4.75;;;20.90;99.90;;;-144.05;52.81;56814.84;5053627;28;20028;-79
2023/07/09 00:21:53;;;;;;;9.52;4.72;;;21.10;99.90;;;-144.05;52.89;56810.59;5053531;28;20389;-82
2023/07/09 00:24:19;;;;;;;7.78;4.70;;;21.10;99.90;;;-144.05;52.84;56823.34;5035678;28;20029;-81
2023/07/09 00:26:47;;;;;;;8.52;5.38;;;21.10;99.90;;;-144.05;53.16;56827.59;5055273;28;20547;-81
2023/07/09 00:29:15;;;;;;;9.88;4.85;;;21.10;99.90;;;-144.05;53.71;56829.72;5035538;28;20434;-82
2023/07/09 00:31:42;;;;;;;9.02;5.30;;;21.00;99.90;;;-144.05;54.02;56831.84;5052101;28;20162;-80
2023/07/09 00:34:14;;;;;;;9.52;5.63;;;21.00;99.90;;;-144.05;54.27;56838.22;5053019;28;20448;-82
2023/07/09 00:36:45;;;;;;;9.10;5.05;;;20.90;99.90;;;-144.05;54.95;56808.47;5052813;28;20017;-82
2023/07/09 00:39:21;;;;;;;8.88;4.75;;;20.70;99.90;;;-144.05;55.67;56827.59;5034689;28;20052;-81
2023/07/09 00:41:50;;;;;;;7.88;4.97;;;20.70;99.90;;;-144.05;55.98;56836.09;5052779;28;20407;-80
2023/07/09 00:44:33;;;;;;;7.53;4.53;;;20.50;99.90;;;-144.05;56.79;56846.72;5053475;28;20396;-81
2023/07/09 00:47:01;;;;;;;8.90;5.00;;;20.40;99.90;;;-144.05;57.14;56810.59;5052873;28;20021;-79
2023/07/09 00:49:41;;;;;;;8.40;4.75;;;20.30;99.90;;;-144.05;57.46;56814.84;5052728;28;20032;-81
2023/07/09 00:52:54;;;;;;;7.90;4.93;;;20.30;99.90;;;-144.05;57.87;56810.59;5051498;28;20495;-82
2023/07/09 00:55:32;;;;;;;9.75;5.93;;;20.20;99.90;;;-144.05;58.71;56810.59;5051183;28;20029;-81
2023/07/09 00:58:09;;;;;;;8.13;5.03;;;20.20;99.90;;;-144.05;59.07;56823.34;5052947;28;20021;-83
2023/07/09 01:00:46;;;;;;;11.90;5.45;;;20.20;99.90;;;-144.05;59.40;56799.97;5052891;28;20021;-82
2023/07/09 01:03:29;;;;;;;9.68;5.50;;;20.20;99.90;;;-144.05;59.83;56802.09;5052679;28;20025;-83
2023/07/09 01:05:57;;;;;;;7.95;5.68;;;19.90;99.90;;;-144.05;60.41;56825.47;5052412;28;20134;-81
2023/07/09 01:08:23;;;;;;;9.65;5.28;;;19.80;99.90;;;-144.05;60.82;56814.84;5034540;28;20503;-80
2023/07/09 01:10:49;;;;;;;8.85;5.65;;;19.80;99.90;;;-144.05;61.35;56799.97;5052510;28;20056;-83
2023/07/09 01:13:19;;;;;;;7.55;5.50;;;19.70;99.90;;;-144.05;61.87;56806.34;5052185;28;20029;-80
2023/07/09 01:15:47;;;;;;;8.00;5.07;;;19.70;99.90;;;-144.05;62.25;56804.22;5052086;28;20510;-80
2023/07/09 01:18:14;;;;;;;8.05;5.38;;;19.60;99.90;;;-144.05;62.28;56814.84;5051987;28;20115;-79
2023/07/09 01:20:42;;;;;;;10.15;6.15;;;19.60;99.90;;;-144.05;62.25;56810.59;5050884;28;20048;-81
2023/07/09 01:23:08;;;;;;;10.95;5.30;;;19.60;99.90;;;-144.05;62.10;56799.97;5050830;28;20427;-80
2023/07/09 01:25:42;;;;;;;9.68;5.88;;;19.70;99.90;;;-144.05;62.20;56802.09;5052231;28;20048;-82
2023/07/09 01:28:08;;;;;;;9.60;5.70;;;19.70;99.90;;;-144.05;62.37;56802.09;5052265;28;20412;-82
2023/07/09 01:30:41;;;;;;;7.82;4.93;;;19.60;99.90;;;-144.05;62.89;56816.97;5052084;28;20060;-81
2023/07/09 01:33:09;;;;;;;10.73;5.53;;;19.50;99.90;;;-144.05;63.38;56814.84;5051991;28;20385;-82
2023/07/09 01:35:42;;;;;;;8.98;5.95;;;19.50;99.90;;;-144.05;63.79;56819.09;5053013;28;20029;-78
2023/07/09 01:38:09;;;;;;;9.95;5.65;;;19.40;99.90;;;-144.05;64.27;56795.75;5064283;28;20079;-82
2023/07/09 01:40:36;;;;;;;8.30;5.50;;;19.40;99.90;;;-144.05;64.67;56806.34;5052797;28;20037;-81
2023/07/09 01:43:07;;;;;;;8.07;5.50;;;19.30;99.90;;;-144.05;64.68;56804.22;5052038;28;20075;-83
2023/07/09 01:45:36;;;;;;;8.63;5.82;;;19.30;99.90;;;-144.05;64.95;56819.09;5053010;28;20036;-82
2023/07/09 01:48:03;;;;;;;9.10;5.35;;;19.30;99.90;;;-144.05;65.23;56793.63;5051064;28;20036;-82
2023/07/09 01:50:30;;;;;;;7.38;5.53;;;19.20;99.90;;;-144.05;65.62;56793.63;5059050;28;20460;-82
2023/07/09 01:52:57;;;;;;;8.23;5.03;;;19.20;99.90;;;-144.05;65.97;56797.88;5058111;28;20607;-82
2023/07/09 01:55:23;;;;;;;7.95;5.20;;;19.20;99.90;;;-144.05;66.14;56816.97;5058009;28;20031;-83
2023/07/09 01:57:51;;;;;;;10.45;5.97;;;19.10;99.90;;;-144.05;66.02;56791.50;5059425;28;20057;-82
2023/07/09 02:00:17;;;;;;;9.48;5.80;;;19.20;99.90;;;-144.05;66.17;56806.34;5059341;28;20033;-82
2023/07/09 02:02:46;;;;;;;9.30;5.63;;;19.20;99.90;;;-144.05;66.19;56795.75;5041396;28;20021;-83
2023/07/09 02:05:19;;;;;;;9.43;5.07;;;19.10;99.90;;;-144.05;66.47;56787.25;5058875;28;20040;-82
2023/07/09 02:07:47;;;;;;;7.82;5.65;;;19.10;99.90;;;-144.05;66.69;56808.47;5057832;28;20025;-83
2023/07/09 02:10:17;;;;;;;12.90;6.07;;;19.10;99.90;;;-144.05;66.82;56806.34;5057459;28;20423;-83
2023/07/09 02:12:45;;;;;;;10.32;5.57;;;19.10;99.90;;;-144.05;66.70;56814.84;5057486;28;20395;-83
2023/07/09 02:15:11;;;;;;;10.82;5.38;;;19.20;99.90;;;-144.05;66.88;56802.09;5058669;28;20111;-82
2023/07/09 02:17:37;;;;;;;8.50;5.22;;;19.10;99.90;;;-144.05;67.12;56791.50;5058783;28;20352;-82
2023/07/09 02:20:06;;;;;;;9.93;5.63;;;19.10;99.90;;;-144.05;67.44;56812.72;5059081;28;20487;-81
2023/07/09 02:22:38;;;;;;;8.23;5.47;;;19.00;99.90;;;-144.05;67.90;56804.22;5059447;28;20071;-83
2023/07/09 02:25:06;;;;;;;10.73;6.10;;;18.80;99.90;;;-144.05;68.24;56808.47;5040193;28;20075;-80
2023/07/09 02:27:35;;;;;;;7.43;5.30;;;18.80;99.90;;;-144.05;68.62;56793.63;5058328;28;20039;-82
2023/07/09 02:30:02;;;;;;;9.80;5.38;;;18.70;99.90;;;-144.05;68.74;56814.84;5058130;28;20466;-80
2023/07/09 02:32:28;;;;;;;8.90;5.75;;;18.70;99.90;;;-144.05;69.01;56799.97;5057925;28;20106;-81
2023/07/09 02:34:55;;;;;;;9.15;5.95;;;18.70;99.90;;;-144.05;69.25;56789.38;5058209;28;20029;-81
2023/07/09 02:37:25;;;;;;;8.10;5.57;;;18.60;99.90;;;-144.05;69.41;56810.59;5056653;28;20025;-81
2023/07/09 02:39:52;;;;;;;7.25;4.85;;;18.60;99.90;;;-144.05;68.92;56821.22;5082529;22;20029;-83
2023/07/09 02:42:22;;;;;;;7.20;5.20;;;18.60;99.90;;;-144.05;68.86;56810.59;5075278;28;20411;-85
2023/07/09 02:44:49;;;;;;;9.48;5.57;;;18.60;99.90;;;-144.05;68.65;56791.50;5060376;28;20041;-83
2023/07/09 02:47:15;;;;;;;10.93;5.20;;;18.60;99.90;;;-144.05;68.41;56804.22;5042644;28;20025;-81
2023/07/09 02:49:41;;;;;;;8.98;5.45;;;18.60;99.90;;;-144.05;68.46;56804.22;5042424;28;20442;-84
2023/07/09 02:52:08;;;;;;;8.48;5.60;;;18.60;99.90;;;-144.05;68.25;56799.97;5060262;28;20033;-82
2023/07/09 02:54:34;;;;;;;8.43;5.25;;;18.50;99.90;;;-144.05;68.16;56829.72;5059881;28;20032;-83
2023/07/09 02:57:00;;;;;;;8.52;5.57;;;18.60;99.90;;;-144.05;68.25;56825.47;5075346;28;20399;-84
2023/07/09 02:59:29;;;;;;;9.45;5.43;;;18.60;99.90;;;-144.05;68.27;56804.22;5058981;28;20052;-80
2023/07/09 03:01:56;;;;;;;9.18;5.28;;;18.60;99.90;;;-144.05;68.30;56802.09;5054405;28;20085;-82
2023/07/09 03:04:23;;;;;;;9.48;5.38;;;18.50;99.90;;;-144.05;68.31;56821.22;5069504;28;20032;-82
2023/07/09 03:06:49;;;;;;;8.30;4.90;;;18.50;99.90;;;-144.05;68.59;56808.47;5054533;28;20375;-81
2023/07/09 03:09:15;;;;;;;9.60;5.20;;;18.50;99.90;;;-144.05;68.80;56791.50;5054134;28;20029;-81
2023/07/09 03:11:41;;;;;;;8.48;5.10;;;18.50;99.90;;;-144.05;68.85;56806.34;5054122;28;20115;-80
2023/07/09 03:14:08;;;;;;;6.53;5.00;;;18.40;99.90;;;-144.05;69.09;56795.75;5069504;28;20492;-81
2023/07/09 03:16:34;;;;;;;7.00;4.95;;;18.40;99.90;;;-144.05;69.45;56791.50;5070150;28;20045;-80
2023/07/09 03:19:03;;;;;;;6.82;4.50;;;18.30;99.90;;;-144.05;69.61;56795.75;5053327;28;20036;-82
2023/07/09 03:21:29;;;;;;;7.25;4.60;;;18.30;99.90;;;-144.05;69.77;56814.84;5054938;28;20565;-80
2023/07/09 03:23:55;;;;;;;8.63;5.25;;;18.30;99.90;;;-144.05;70.05;56789.38;5053911;28;20021;-80
2023/07/09 03:26:21;;;;;;;7.40;4.30;;;18.30;99.90;;;-144.05;70.16;56816.97;5069348;28;20032;-80
2023/07/09 03:28:47;;;;;;;10.88;5.35;;;18.20;99.90;;;-144.05;70.32;56821.22;5053834;28;20040;-79
2023/07/09 03:31:14;;;;;;;6.88;5.30;;;18.20;99.90;;;-144.05;70.32;56785.13;5053778;28;20458;-80
2023/07/09 03:33:39;;;;;;;7.88;4.60;;;18.20;99.90;;;-144.05;70.69;56806.34;5054180;28;20082;-80
2023/07/09 03:36:06;;;;;;;8.00;4.65;;;18.20;99.90;;;-144.05;70.75;56806.34;5053631;28;20032;-81
2023/07/09 03:38:32;;;;;;;8.40;5.15;;;18.20;99.90;;;-144.05;70.95;56804.22;5052591;28;20099;-83
2023/07/09 03:40:59;;;;;;;8.07;4.68;;;18.10;99.90;;;-144.05;71.15;56795.75;5053858;28;20064;-82
2023/07/09 03:43:25;;;;;;;6.40;4.97;;;18.10;99.90;;;-144.05;71.39;56780.88;5053995;28;20048;-79
2023/07/09 03:45:52;;;;;;;7.78;4.93;;;18.10;99.90;;;-144.05;71.48;56812.72;5052508;28;20031;-80
2023/07/09 03:48:19;;;;;;;7.03;4.97;;;18.20;99.90;;;-144.05;71.75;56814.84;5053693;28;20033;-82
2023/07/09 03:50:48;;;;;;;8.77;4.97;;;18.10;99.90;;;-144.05;71.67;56819.09;5052433;28;20124;-80
2023/07/09 03:53:16;;;;;;;7.22;4.82;;;18.10;99.90;;;-144.05;72.01;56791.50;5053832;28;20484;-81
2023/07/09 03:55:47;;;;;;;6.28;4.45;;;18.20;99.90;;;-144.05;71.91;56795.75;5054750;28;20033;-85
2023/07/09 03:58:13;;;;;;;7.72;4.55;;;18.20;99.90;;;-144.05;72.02;56793.63;5057255;28;20040;-85
2023/07/09 04:00:40;;;;;;;7.43;4.75;;;18.20;99.90;;;-144.05;72.08;56793.63;5057931;28;20025;-84
2023/07/09 04:03:08;;;;;;;6.50;4.60;;;18.20;99.90;;;-144.05;72.14;56821.22;5055909;28;20024;-85
2023/07/09 04:05:34;;;;;;;8.35;5.68;;;18.20;99.90;;;-144.05;71.94;56821.22;5055601;28;20029;-82
2023/07/09 04:08:00;;;;;;;10.10;5.60;;;18.20;99.90;;;-144.05;71.91;56793.63;5054457;28;20036;-83
2023/07/09 04:10:26;;;;;;;8.43;5.05;;;18.30;99.90;;;-144.05;71.86;56808.47;5054455;28;20029;-82
2023/07/09 04:12:53;;;;;;;8.48;4.72;;;18.30;99.90;;;-144.05;72.15;56795.75;5052349;28;20128;-79
2023/07/09 04:15:19;;;;;;;6.97;4.63;;;18.30;99.90;;;-144.05;72.40;56810.59;5051808;28;20081;-81
2023/07/09 04:17:45;;;;;;;7.72;4.90;;;18.30;99.90;;;-144.05;72.56;56791.50;5052969;28;20029;-81
2023/07/09 04:20:12;;;;;;;7.72;5.10;;;18.40;99.90;;;-144.05;72.75;56821.22;5053065;28;20028;-80
2023/07/09 04:22:38;;;;;;;7.90;4.68;;;18.40;99.90;;;-144.05;73.05;56787.25;5068288;28;20032;-80
2023/07/09 04:25:09;;;;;;;6.50;5.15;;;18.40;99.90;;;-144.05;72.86;56789.38;5051778;28;20396;-81
2023/07/09 04:27:37;;;;;;;7.43;4.85;;;18.40;99.90;;;-144.05;72.80;56814.84;5033957;28;20049;-82
2023/07/09 04:30:09;;;;;;;7.57;4.47;;;18.40;99.90;;;-144.05;72.39;56795.75;5038495;28;20021;-82
2023/07/09 04:32:36;;;;;;;9.75;4.57;;;18.40;99.90;;;-144.05;72.33;56806.34;5034291;28;20030;-81
2023/07/09 04:35:05;;;;;;;7.10;5.20;;;18.50;99.90;;;-144.05;71.83;56808.47;5033165;28;20021;-79
2023/07/09 04:37:31;;;;;;;8.73;5.10;;;18.60;99.90;;;-144.05;71.29;56819.09;5032253;28;20057;-80
2023/07/09 04:39:57;;;;;;;9.07;5.15;;;18.70;99.90;;;-144.05;70.95;56814.84;5048093;28;20056;-81
2023/07/09 04:42:22;;;;;;;6.97;5.00;;;18.80;99.90;;;-144.05;70.84;56827.59;5031466;28;20061;-82
2023/07/09 04:44:49;;;;;;;7.82;5.35;;;18.90;99.90;;;-144.05;70.66;56814.84;5031389;28;20025;-80
2023/07/09 04:47:15;;;;;;;7.97;5.03;;;19.00;99.90;;;-144.05;70.34;56810.59;5031057;28;20492;-80
2023/07/09 04:49:41;;;;;;;7.25;4.72;;;19.20;99.90;;;-144.05;69.84;56799.97;5031027;28;20087;-82
2023/07/09 04:52:11;;;;;;;6.93;4.57;;;19.30;99.90;;;-144.05;69.40;56810.59;5032310;28;20377;-80
2023/07/09 04:54:43;;;;;;;7.28;4.75;;;19.40;99.90;;;-144.05;68.77;56819.09;5030924;28;20030;-79
2023/07/09 04:57:09;;;;;;;6.65;4.38;;;19.60;99.90;;;-144.05;68.42;56833.97;5031073;28;20044;-80
2023/07/09 04:59:35;;;;;;;7.20;4.78;;;19.70;99.90;;;-144.05;68.18;56827.59;5030932;28;20091;-81
2023/07/09 05:02:01;;;;;;;8.57;4.78;;;19.80;99.90;;;-144.05;68.01;56823.34;5032119;28;20033;-81
2023/07/09 05:04:26;;;;;;;6.00;4.45;;;20.00;99.90;;;-144.05;67.91;56833.97;5032388;28;20048;-83
2023/07/09 05:06:52;;;;;;;7.65;5.07;;;20.10;99.90;;;-144.05;67.38;56840.34;5032624;28;20083;-80
2023/07/09 05:09:18;;;;;;;7.53;4.93;;;20.30;99.90;;;-144.05;66.74;56829.72;5033522;28;20431;-81
2023/07/09 05:11:44;;;;;;;6.40;4.65;;;20.40;99.90;;;-144.05;65.76;56821.22;5032587;28;20033;-79
2023/07/09 05:14:10;;;;;;;5.78;4.43;;;20.60;99.90;;;-144.05;65.11;56827.59;5031926;28;20021;-80
2023/07/09 05:16:35;;;;;;;6.55;4.70;;;20.80;99.90;;;-144.05;64.38;56840.34;5031615;28;20048;-81
2023/07/09 05:19:01;;;;;;;8.10;5.03;;;21.00;99.90;;;-144.05;63.94;56844.59;5031395;28;20480;-81
2023/07/09 05:21:27;;;;;;;6.25;5.13;;;21.30;99.90;;;-144.05;63.24;56842.47;5031695;28;20033;-84
2023/07/09 05:23:53;;;;;;;6.95;4.70;;;21.50;99.90;;;-144.05;62.48;56850.97;5049888;28;20331;-83
2023/07/09 05:26:18;;;;;;;7.75;4.95;;;21.70;99.90;;;-144.05;61.93;56870.06;5041266;28;20028;-82
2023/07/09 05:28:44;;;;;;;7.47;5.35;;;21.90;99.90;;;-144.05;61.41;56844.59;5053306;28;20064;-85
2023/07/09 05:31:10;;;;;;;7.38;5.03;;;22.10;99.90;;;-144.05;60.42;56861.56;5053759;28;20391;-82
2023/07/09 05:33:36;;;;;;;7.82;4.60;;;22.40;99.90;;;-144.05;59.16;56867.94;5053662;28;20063;-83
2023/07/09 05:36:02;;;;;;;8.00;5.07;;;22.60;99.90;;;-144.05;58.33;56889.19;5053216;28;20032;-80
2023/07/09 05:38:28;;;;;;;8.15;4.78;;;22.90;99.90;;;-144.05;58.12;56887.06;5053282;28;20032;-82
2023/07/09 05:41:04;;;;;;;7.25;4.75;;;23.10;99.90;;;-144.05;57.20;56870.06;5051599;28;20388;-80
2023/07/09 05:43:31;;;;;;;9.55;4.53;;;23.30;99.90;;;-144.05;55.91;56878.56;5053693;28;20033;-81
2023/07/09 05:45:57;;;;;;;9.13;4.95;;;23.50;99.90;;;-144.05;55.28;56887.06;5052320;28;20063;-79
2023/07/09 05:48:23;;;;;;;9.77;5.10;;;23.80;99.90;;;-144.05;53.76;56921.06;5053313;28;20036;-81
2023/07/09 05:50:57;;;;;;;6.47;4.57;;;24.00;99.90;;;-144.05;53.43;56940.16;5052577;28;20186;-83
2023/07/09 05:53:23;;;;;;;7.60;4.55;;;24.20;99.90;;;-144.05;52.31;56918.94;5052551;28;20052;-80
2023/07/09 05:55:54;;;;;;;8.77;4.10;;;24.50;99.90;;;-144.05;52.56;56938.03;5052120;28;20025;-79
2023/07/09 05:58:20;;;;;;;5.97;4.47;;;24.70;99.90;;;-144.05;52.32;56931.66;5054115;28;20025;-82
2023/07/09 06:00:45;;;;;;;10.35;5.03;;;25.00;99.90;;;-144.05;51.36;56929.53;5053474;28;20056;-82
2023/07/09 06:03:11;;;;;;;7.20;4.60;;;25.20;99.90;;;-144.05;50.93;56927.41;5070859;28;20033;-84
2023/07/09 06:05:37;;;;;;;7.80;4.85;;;25.40;99.90;;;-144.05;50.71;56948.66;5055684;28;20044;-85
2023/07/09 06:08:04;;;;;;;8.60;4.75;;;25.60;99.90;;;-144.05;49.47;56959.28;5054508;28;20025;-82
2023/07/09 06:10:30;;;;;;;8.20;4.85;;;25.80;99.90;;;-144.05;47.69;56959.28;5065785;28;20081;-79
2023/07/09 06:12:58;;;;;;;8.57;4.40;;;26.00;99.90;;;-144.05;46.13;56972.03;5074755;28;20041;-82
2023/07/09 06:15:25;;;;;;;6.60;3.90;;;26.30;99.90;;;-144.05;45.40;56967.78;5076679;28;20021;-80
2023/07/09 06:17:51;;;;;;;9.85;4.97;;;26.50;99.90;;;-144.05;44.75;56967.78;5061304;28;20124;-81
2023/07/09 06:20:17;;;;;;;6.72;5.00;;;26.70;99.90;;;-144.05;44.35;57018.75;5056547;28;20037;-80
2023/07/09 06:22:43;;;;;;;8.35;4.80;;;26.90;99.90;;;-144.05;44.21;56991.13;5056520;28;20078;-82
2023/07/09 06:25:09;;;;;;;9.63;5.22;;;27.00;99.90;;;-144.05;43.79;57006.00;5056116;28;20478;-81
2023/07/09 06:27:35;;;;;;;7.65;4.90;;;27.10;99.90;;;-144.05;43.29;56980.53;5073827;28;20036;-80
2023/07/09 06:30:01;;;;;;;5.78;4.65;;;27.20;99.90;;;-144.05;43.18;57029.38;5072162;28;20039;-80
2023/07/09 06:32:27;;;;;;;5.90;4.43;;;27.40;99.90;;;-144.05;42.43;57018.75;5059429;28;20080;-82
2023/07/09 06:34:52;;;;;;;6.40;4.80;;;27.50;99.90;;;-144.05;42.24;57025.13;5054246;28;20091;-84
2023/07/09 06:37:18;;;;;;;8.25;5.25;;;27.60;99.90;;;-144.05;41.88;57008.13;5056885;28;20399;-82
2023/07/09 06:39:44;;;;;;;9.18;4.80;;;27.70;99.90;;;-144.05;41.84;57035.75;5056843;28;20052;-83
2023/07/09 06:42:10;;;;;;;8.90;4.57;;;27.90;99.90;;;-144.05;41.28;57056.97;5056560;28;20021;-79
2023/07/09 06:44:36;;;;;;;10.20;5.35;;;28.00;99.90;;;-144.05;41.68;57046.38;5072189;28;20021;-79
2023/07/09 06:47:01;;;;;;;6.97;4.90;;;28.30;99.90;;;-144.05;40.75;57052.75;5055489;28;20650;-80
2023/07/09 06:49:28;;;;;;;8.50;5.10;;;28.50;99.90;;;-144.05;40.66;57056.97;5055341;28;20028;-83
2023/07/09 06:51:54;;;;;;;7.85;4.95;;;28.60;99.90;;;-144.05;39.62;57048.50;5056673;28;20028;-80
2023/07/09 06:54:20;;;;;;;11.32;5.50;;;28.70;99.90;;;-144.05;39.65;57076.09;5054514;28;20029;-80
2023/07/09 06:56:45;;;;;;;7.15;5.38;;;28.90;99.90;;;-144.05;39.31;57099.47;5055788;28;20056;-80
2023/07/09 06:59:11;;;;;;;7.63;5.40;;;28.90;99.90;;;-144.05;39.35;57084.59;5055305;28;20028;-80
2023/07/09 07:01:37;;;;;;;10.50;5.45;;;29.10;99.90;;;-144.05;38.64;57090.97;5055370;28;20024;-79
2023/07/09 07:04:03;;;;;;;8.30;5.53;;;29.30;99.90;;;-144.05;38.36;57110.09;5054039;28;20510;-82
2023/07/09 07:06:30;;;;;;;11.05;5.07;;;29.50;99.90;;;-144.05;37.42;57129.22;5055442;28;20040;-79
2023/07/09 07:08:56;;;;;;;8.60;5.40;;;29.60;99.90;;;-144.05;37.44;57139.81;5055693;28;20029;-79
2023/07/09 07:11:22;;;;;;;8.27;5.45;;;29.80;99.90;;;-144.05;36.86;57124.97;5055762;28;20033;-82
2023/07/09 07:13:51;;;;;;;8.50;5.22;;;30.00;99.90;;;-144.05;36.64;57161.06;5054464;28;20385;-80
2023/07/09 07:16:17;;;;;;;6.93;5.30;;;30.20;99.90;;;-144.05;35.89;57152.56;5055735;28;20029;-81
2023/07/09 07:18:43;;;;;;;10.30;5.15;;;30.30;99.90;;;-144.05;36.25;57169.56;5056012;28;20379;-82
2023/07/09 07:21:08;;;;;;;7.15;4.78;;;30.30;99.90;;;-144.05;35.98;57178.06;5077358;28;20049;-77
2023/07/09 07:23:35;;;;;;;8.15;5.05;;;30.50;99.90;;;-144.05;35.43;57184.44;5060787;28;20029;-80
2023/07/09 07:26:01;;;;;;;7.38;5.10;;;30.60;99.90;;;-144.05;35.48;57186.56;5055184;28;20124;-82
2023/07/09 07:28:26;;;;;;;7.00;5.25;;;30.90;99.90;;;-144.05;35.20;57197.19;5054660;28;20075;-83
2023/07/09 07:31:08;;;;;;;8.13;5.25;;;31.00;99.90;;;-144.05;34.60;57201.44;5057202;28;20044;-80
2023/07/09 07:33:35;;;;;;;9.75;5.18;;;31.10;98.90;;;-144.05;34.47;57195.06;5054964;28;20048;-83
2023/07/09 07:36:05;;;;;;;8.75;5.05;;;31.30;98.80;;;-144.05;34.69;57248.16;5056248;28;20108;-81
2023/07/09 07:38:30;;;;;;;6.93;4.38;;;31.50;98.80;;;-144.05;34.43;57233.28;5055665;28;20025;-80
2023/07/09 07:40:56;;;;;;;8.48;5.50;;;31.50;98.00;;;-144.05;33.96;57260.91;5055258;28;20033;-81
2023/07/09 07:43:22;;;;;;;10.73;5.50;;;31.60;97.20;;;-144.05;34.24;57235.41;5058109;28;20108;-81
2023/07/09 07:45:48;;;;;;;10.88;5.10;;;31.70;97.40;;;-144.05;34.02;57246.03;5058032;28;20483;-81
2023/07/09 07:48:15;;;;;;;11.02;4.82;;;31.70;96.70;;;-144.05;34.14;57214.16;5057204;28;20033;-83
2023/07/09 07:50:40;;;;;;;8.65;5.22;;;31.70;96.50;;;-144.05;34.05;57271.53;5056538;28;20029;-86
2023/07/09 07:53:08;;;;;;;8.70;5.28;;;32.00;96.90;;;-144.05;33.80;57280.03;5054646;28;20405;-78
2023/07/09 07:55:36;;;;;;;11.07;5.03;;;32.20;96.00;;;-144.05;32.82;57273.66;5053039;28;20037;-79
2023/07/09 07:58:03;;;;;;;8.63;4.88;;;32.20;94.50;;;-144.05;32.91;57307.63;5054638;28;20043;-78
2023/07/09 08:00:31;;;;;;;5.78;4.47;;;32.20;94.20;;;-144.05;32.80;57288.50;5053726;28;20423;-77
2023/07/09 08:02:57;;;;;;;7.95;4.60;;;32.50;93.90;;;-144.05;32.45;57288.50;5055520;28;20094;-76
2023/07/09 08:05:23;;;;;;;8.23;5.20;;;32.50;93.00;;;-144.05;32.12;57307.63;5070575;28;20029;-77
2023/07/09 08:07:49;;;;;;;8.23;5.22;;;32.60;92.30;;;-144.05;31.88;57322.50;5054637;28;20033;-77
2023/07/09 08:10:16;;;;;;;7.97;5.78;;;32.70;91.80;;;-144.05;31.91;57333.13;5054912;28;20049;-78
2023/07/09 08:12:42;;;;;;;8.23;5.57;;;32.90;92.10;;;-144.05;31.42;57392.59;5054981;28;20037;-76
2023/07/09 08:15:08;;;;;;;7.32;5.28;;;33.20;90.90;;;-144.05;31.43;57354.38;5054619;28;20060;-77
2023/07/09 08:17:34;;;;;;;6.43;4.80;;;33.40;91.20;;;-144.05;31.48;57375.59;5054548;28;20029;-77
2023/07/09 08:20:00;;;;;;;6.90;5.35;;;33.50;91.30;;;-144.05;31.47;57348.00;5052852;28;20028;-77
2023/07/09 08:22:26;;;;;;;9.57;5.80;;;33.50;90.40;;;-144.05;31.27;57362.88;5053124;28;20021;-78
2023/07/09 08:24:52;;;;;;;8.48;5.45;;;33.40;89.30;;;-144.05;31.71;57396.84;5054528;28;20436;-78
2023/07/09 08:27:19;;;;;;;9.18;5.28;;;33.50;90.50;;;-144.05;31.42;57424.47;5049633;28;20037;-79
2023/07/09 08:29:47;;;;;;;9.65;5.97;;;33.60;89.80;;;-144.05;30.74;57381.97;5035182;28;20064;-80
2023/07/09 08:32:14;;;;;;;6.32;5.03;;;33.60;88.00;;;-144.05;30.92;57386.22;5033524;28;20091;-80
2023/07/09 08:34:42;;;;;;;8.18;5.88;;;33.60;88.20;;;-144.05;31.39;57403.22;5036293;28;20029;-76
2023/07/09 08:37:09;;;;;;;7.38;5.07;;;33.70;89.40;;;-144.05;30.53;57388.34;5035905;28;20029;-80
2023/07/09 08:39:36;;;;;;;8.77;5.50;;;33.90;86.30;;;-144.05;30.42;57426.59;5049839;28;20032;-81
2023/07/09 08:42:13;;;;;;;8.68;5.40;;;34.00;85.10;;;-144.05;29.26;57447.84;5033174;28;20518;-79
2023/07/09 08:45:12;;;;;;;11.50;5.30;;;34.20;81.00;;;-144.05;28.67;57464.81;5032255;28;20040;-80
2023/07/09 08:48:28;;;;;;;9.05;5.70;;;34.50;81.50;;;-144.05;29.10;57462.69;5049501;28;20116;-79
2023/07/09 08:51:28;;;;;;;10.07;5.70;;;34.70;80.20;;;-144.05;29.36;57473.31;5034507;28;20511;-80
2023/07/09 08:54:00;;;;;;;8.77;5.78;;;34.80;81.50;;;-144.05;29.25;57494.56;5049714;28;20492;-80
2023/07/09 08:56:32;;;;;;;9.00;5.65;;;34.90;79.70;;;-144.05;29.70;57524.31;5035971;28;20041;-80
2023/07/09 08:59:03;;;;;;;8.75;5.60;;;35.00;83.40;;;-144.05;29.20;57515.81;5034249;28;20045;-79
2023/07/09 09:01:57;;;;;;;8.05;4.97;;;35.00;77.50;;;-144.05;29.20;57494.56;5034208;28;20558;-79
2023/07/09 09:04:37;;;;;;;9.20;6.22;;;35.10;78.60;;;-144.05;27.54;57513.69;5034720;28;20128;-79
2023/07/09 09:07:40;;;;;;;8.48;5.57;;;35.10;71.90;;;-144.05;27.39;57554.06;5033474;28;20056;-78
2023/07/09 09:10:19;;;;;;;10.18;5.30;;;35.30;70.70;;;-144.05;27.43;57547.69;5039075;28;20029;-78
2023/07/09 09:13:27;;;;;;;7.53;5.57;;;35.50;71.00;;;-144.05;27.69;57568.91;5037008;28;20026;-80
2023/07/09 09:16:06;;;;;;;8.43;5.57;;;35.70;71.30;;;-144.05;27.69;57571.03;5013945;28;20114;-81
2023/07/09 09:18:42;;;;;;;10.52;5.90;;;35.80;71.30;;;-144.05;27.96;57571.03;5034186;28;20116;-81
2023/07/09 09:21:30;;;;;;;7.57;5.18;;;35.90;71.90;;;-144.05;27.98;57577.41;5050928;28;20507;-78
2023/07/09 09:24:19;;;;;;;7.18;5.50;;;35.80;71.20;;;-144.05;27.61;57581.66;5051392;28;20040;-79
2023/07/09 09:26:51;;;;;;;8.52;5.18;;;36.00;71.10;;;-144.05;27.40;57609.28;5046974;28;20484;-80
2023/07/09 09:29:17;;;;;;;8.95;5.47;;;36.10;69.80;;;-144.05;26.89;57562.53;5054556;28;20033;-77
2023/07/09 09:31:55;;;;;;;8.07;5.45;;;36.10;66.50;;;-144.05;26.77;57566.78;5053459;28;20040;-76
2023/07/09 09:34:30;;;;;;;8.02;5.55;;;35.90;66.30;;;-144.05;26.29;57602.91;5054988;28;20480;-78
2023/07/09 09:36:59;;;;;;;9.35;5.20;;;36.00;65.00;;;-144.05;26.05;57619.91;5053470;28;20116;-79
2023/07/09 09:39:26;;;;;;;6.18;4.40;;;36.10;63.50;;;-144.05;27.19;57617.78;5053548;28;20630;-79
2023/07/09 09:41:57;;;;;;;6.75;4.43;;;36.40;67.90;;;-144.05;26.69;57626.28;5055038;28;20092;-80
2023/07/09 09:44:30;;;;;;;8.27;4.70;;;36.40;66.80;;;-144.05;26.62;57624.16;5053462;28;20077;-79
2023/07/09 09:46:59;;;;;;;8.73;5.03;;;36.40;65.50;;;-144.05;26.38;57619.91;5055023;28;20047;-78
2023/07/09 09:49:25;;;;;;;9.27;5.25;;;36.40;64.90;;;-144.05;26.46;57632.66;5054349;28;20103;-79
2023/07/09 09:51:50;;;;;;;6.57;5.15;;;36.30;65.00;;;-144.05;26.60;57624.16;5053180;28;20440;-79
2023/07/09 09:54:27;;;;;;;7.18;5.28;;;36.40;65.40;;;-144.05;27.06;57626.28;5055140;28;20067;-80
2023/07/09 09:56:54;;;;;;;8.68;4.60;;;36.50;66.50;;;-144.05;26.64;57615.66;5054954;28;20037;-80
2023/07/09 09:59:40;;;;;;;8.73;4.95;;;36.40;64.50;;;-144.05;26.24;57607.16;5053543;28;20087;-79
2023/07/09 10:02:24;;;;;;;5.40;4.43;;;36.30;62.60;;;-144.05;26.17;57596.53;5053100;28;20119;-79
2023/07/09 10:04:52;;;;;;;8.40;4.80;;;36.40;62.30;;;-144.05;26.26;57588.03;5053664;28;20036;-80
2023/07/09 10:07:50;;;;;;;8.07;4.65;;;36.50;63.20;;;-144.05;26.45;57670.91;5054306;28;20036;-80
2023/07/09 10:10:28;;;;;;;7.93;4.95;;;36.70;64.00;;;-144.05;26.21;57645.41;5056572;28;20075;-80
2023/07/09 10:13:24;;;;;;;7.82;5.03;;;36.90;63.10;;;-144.05;25.90;57692.13;5064724;28;20036;-81
2023/07/09 10:16:24;;;;;;;9.57;4.90;;;37.00;63.00;;;-144.05;25.96;57690.00;5060498;28;20041;-79